Fox, Oklahoma
Current Conditions -  °F | °C
As of 1:55 PM on Wednesday 28 Jan 2015 (Local Time) from K1F0 Reporting Station
Clear Clear  
Wind Chill: 77°   Ceiling: Unl
Heat Index: 77°   Visibility: 10mi
Dew Point: 39°   Wind: 9mph
Humidity: 26%   Direction: 190°S
Pressure: 29.96"   Gusts: 16mph
Location:  34.36°N, 97.49°W
Report Text: K1F0 281955Z AUTO 19008G14KT 10SM CLR 25/04 A2996 RMK AO2
Loading
Personal Weather Stations






























Interactive Weather Map New forecast layout! Learn more

10-Day Weather Forecast

Advertisements
Track Severe Weather on mobile